sensor_id;sensor_type;location;lat;lon;timestamp;P1;durP1;ratioP1;P2;durP2;ratioP2
6344;SDS011;3205;42.666;23.264;2023-04-16T00:00:18;8.63;;;3.33;;
6344;SDS011;3205;42.666;23.264;2023-04-16T00:02:45;6.77;;;3.43;;
6344;SDS011;3205;42.666;23.264;2023-04-16T00:05:12;5.13;;;2.80;;
6344;SDS011;3205;42.666;23.264;2023-04-16T00:07:38;7.90;;;3.10;;
6344;SDS011;3205;42.666;23.264;2023-04-16T00:10:05;4.63;;;3.00;;
6344;SDS011;3205;42.666;23.264;2023-04-16T00:12:32;4.40;;;3.10;;
6344;SDS011;3205;42.666;23.264;2023-04-16T00:14:58;5.33;;;3.47;;
6344;SDS011;3205;42.666;23.264;2023-04-16T00:17:24;5.60;;;2.80;;
6344;SDS011;3205;42.666;23.264;2023-04-16T00:19:51;8.73;;;2.97;;
6344;SDS011;3205;42.666;23.264;2023-04-16T00:22:17;5.33;;;2.63;;
6344;SDS011;3205;42.666;23.264;2023-04-16T00:24:43;7.30;;;2.90;;
6344;SDS011;3205;42.666;23.264;2023-04-16T00:27:09;6.93;;;2.87;;
6344;SDS011;3205;42.666;23.264;2023-04-16T00:29:35;6.23;;;2.60;;
6344;SDS011;3205;42.666;23.264;2023-04-16T00:32:01;7.30;;;3.20;;
6344;SDS011;3205;42.666;23.264;2023-04-16T00:34:27;6.37;;;2.90;;
6344;SDS011;3205;42.666;23.264;2023-04-16T00:36:54;6.90;;;2.57;;
6344;SDS011;3205;42.666;23.264;2023-04-16T00:39:20;4.40;;;2.67;;
6344;SDS011;3205;42.666;23.264;2023-04-16T00:41:46;6.63;;;2.73;;
6344;SDS011;3205;42.666;23.264;2023-04-16T00:44:13;3.73;;;2.57;;
6344;SDS011;3205;42.666;23.264;2023-04-16T00:46:39;8.67;;;2.47;;
6344;SDS011;3205;42.666;23.264;2023-04-16T00:49:06;5.17;;;2.20;;
6344;SDS011;3205;42.666;23.264;2023-04-16T00:51:32;5.73;;;2.60;;
6344;SDS011;3205;42.666;23.264;2023-04-16T00:54:00;4.27;;;2.83;;
6344;SDS011;3205;42.666;23.264;2023-04-16T00:56:27;5.67;;;2.47;;
6344;SDS011;3205;42.666;23.264;2023-04-16T00:58:54;4.97;;;2.60;;
6344;SDS011;3205;42.666;23.264;2023-04-16T01:01:20;5.40;;;2.40;;
6344;SDS011;3205;42.666;23.264;2023-04-16T01:03:47;5.87;;;2.40;;
6344;SDS011;3205;42.666;23.264;2023-04-16T01:06:14;3.57;;;2.30;;
6344;SDS011;3205;42.666;23.264;2023-04-16T01:08:42;5.07;;;2.80;;
6344;SDS011;3205;42.666;23.264;2023-04-16T01:11:09;5.23;;;2.50;;
6344;SDS011;3205;42.666;23.264;2023-04-16T01:13:36;9.93;;;2.80;;
6344;SDS011;3205;42.666;23.264;2023-04-16T01:16:03;10.23;;;2.67;;
6344;SDS011;3205;42.666;23.264;2023-04-16T01:18:31;4.03;;;2.47;;
6344;SDS011;3205;42.666;23.264;2023-04-16T01:20:58;8.20;;;2.33;;
6344;SDS011;3205;42.666;23.264;2023-04-16T01:23:24;5.77;;;2.37;;
6344;SDS011;3205;42.666;23.264;2023-04-16T01:25:50;3.73;;;2.23;;
6344;SDS011;3205;42.666;23.264;2023-04-16T01:28:16;7.90;;;2.50;;
6344;SDS011;3205;42.666;23.264;2023-04-16T01:30:43;12.93;;;2.77;;
6344;SDS011;3205;42.666;23.264;2023-04-16T01:33:09;3.53;;;2.13;;
6344;SDS011;3205;42.666;23.264;2023-04-16T01:35:36;8.83;;;2.73;;
6344;SDS011;3205;42.666;23.264;2023-04-16T01:38:02;4.13;;;2.33;;
6344;SDS011;3205;42.666;23.264;2023-04-16T01:40:31;7.03;;;2.63;;
6344;SDS011;3205;42.666;23.264;2023-04-16T01:42:58;7.13;;;2.60;;
6344;SDS011;3205;42.666;23.264;2023-04-16T01:45:24;5.67;;;2.93;;
6344;SDS011;3205;42.666;23.264;2023-04-16T01:47:50;2.90;;;2.37;;
6344;SDS011;3205;42.666;23.264;2023-04-16T01:50:16;6.40;;;3.30;;
6344;SDS011;3205;42.666;23.264;2023-04-16T01:52:46;5.57;;;2.90;;
6344;SDS011;3205;42.666;23.264;2023-04-16T01:55:13;8.70;;;2.47;;
6344;SDS011;3205;42.666;23.264;2023-04-16T01:57:39;6.93;;;3.07;;
6344;SDS011;3205;42.666;23.264;2023-04-16T02:00:05;8.33;;;2.43;;
6344;SDS011;3205;42.666;23.264;2023-04-16T02:02:33;4.10;;;2.50;;
6344;SDS011;3205;42.666;23.264;2023-04-16T02:05:00;7.23;;;1.97;;
6344;SDS011;3205;42.666;23.264;2023-04-16T02:07:26;6.33;;;3.00;;
6344;SDS011;3205;42.666;23.264;2023-04-16T02:09:52;5.60;;;2.63;;
6344;SDS011;3205;42.666;23.264;2023-04-16T02:12:19;8.47;;;2.63;;
6344;SDS011;3205;42.666;23.264;2023-04-16T02:14:45;4.17;;;2.37;;
6344;SDS011;3205;42.666;23.264;2023-04-16T02:17:11;2.67;;;2.20;;
6344;SDS011;3205;42.666;23.264;2023-04-16T02:19:38;6.37;;;2.07;;
6344;SDS011;3205;42.666;23.264;2023-04-16T02:22:04;3.97;;;2.33;;
6344;SDS011;3205;42.666;23.264;2023-04-16T02:24:30;3.37;;;2.30;;
6344;SDS011;3205;42.666;23.264;2023-04-16T02:26:56;6.03;;;2.43;;
6344;SDS011;3205;42.666;23.264;2023-04-16T02:29:23;5.83;;;2.27;;
6344;SDS011;3205;42.666;23.264;2023-04-16T02:31:49;4.20;;;2.20;;
6344;SDS011;3205;42.666;23.264;2023-04-16T02:34:15;5.73;;;2.73;;
6344;SDS011;3205;42.666;23.264;2023-04-16T02:36:41;6.40;;;2.53;;
6344;SDS011;3205;42.666;23.264;2023-04-16T02:39:07;8.80;;;2.60;;
6344;SDS011;3205;42.666;23.264;2023-04-16T02:41:33;4.13;;;2.43;;
6344;SDS011;3205;42.666;23.264;2023-04-16T02:44:00;3.10;;;2.20;;
6344;SDS011;3205;42.666;23.264;2023-04-16T02:46:26;11.20;;;2.90;;
6344;SDS011;3205;42.666;23.264;2023-04-16T02:48:53;4.67;;;2.53;;
6344;SDS011;3205;42.666;23.264;2023-04-16T02:51:19;8.53;;;3.43;;
6344;SDS011;3205;42.666;23.264;2023-04-16T02:53:45;3.63;;;2.73;;
6344;SDS011;3205;42.666;23.264;2023-04-16T02:56:11;5.07;;;2.57;;
6344;SDS011;3205;42.666;23.264;2023-04-16T02:58:37;3.93;;;2.60;;
6344;SDS011;3205;42.666;23.264;2023-04-16T03:01:03;6.57;;;3.17;;
6344;SDS011;3205;42.666;23.264;2023-04-16T03:03:30;7.90;;;3.10;;
6344;SDS011;3205;42.666;23.264;2023-04-16T03:05:56;6.33;;;2.93;;
6344;SDS011;3205;42.666;23.264;2023-04-16T03:08:22;5.13;;;2.80;;
6344;SDS011;3205;42.666;23.264;2023-04-16T03:10:48;9.87;;;3.70;;
6344;SDS011;3205;42.666;23.264;2023-04-16T03:13:14;8.43;;;3.27;;
6344;SDS011;3205;42.666;23.264;2023-04-16T03:15:40;5.30;;;3.07;;
6344;SDS011;3205;42.666;23.264;2023-04-16T03:18:12;7.87;;;3.00;;
6344;SDS011;3205;42.666;23.264;2023-04-16T03:20:39;9.93;;;3.37;;
6344;SDS011;3205;42.666;23.264;2023-04-16T03:23:05;11.10;;;3.13;;
6344;SDS011;3205;42.666;23.264;2023-04-16T03:25:31;5.60;;;3.27;;
6344;SDS011;3205;42.666;23.264;2023-04-16T03:27:57;9.37;;;3.40;;
6344;SDS011;3205;42.666;23.264;2023-04-16T03:30:23;8.30;;;3.20;;
6344;SDS011;3205;42.666;23.264;2023-04-16T03:32:49;7.17;;;2.90;;
6344;SDS011;3205;42.666;23.264;2023-04-16T03:35:16;7.47;;;3.40;;
6344;SDS011;3205;42.666;23.264;2023-04-16T03:37:43;6.10;;;2.80;;
6344;SDS011;3205;42.666;23.264;2023-04-16T03:40:09;11.50;;;3.50;;
6344;SDS011;3205;42.666;23.264;2023-04-16T03:42:35;6.97;;;3.20;;
6344;SDS011;3205;42.666;23.264;2023-04-16T03:45:02;8.43;;;3.03;;
6344;SDS011;3205;42.666;23.264;2023-04-16T03:47:28;8.13;;;2.93;;
6344;SDS011;3205;42.666;23.264;2023-04-16T03:49:54;7.63;;;2.77;;
6344;SDS011;3205;42.666;23.264;2023-04-16T03:52:20;4.77;;;3.10;;
6344;SDS011;3205;42.666;23.264;2023-04-16T03:54:47;12.17;;;3.20;;
6344;SDS011;3205;42.666;23.264;2023-04-16T03:57:13;10.07;;;2.90;;
6344;SDS011;3205;42.666;23.264;2023-04-16T03:59:39;10.73;;;3.83;;
6344;SDS011;3205;42.666;23.264;2023-04-16T04:02:05;11.63;;;2.87;;
6344;SDS011;3205;42.666;23.264;2023-04-16T04:04:31;9.50;;;3.63;;
6344;SDS011;3205;42.666;23.264;2023-04-16T04:06:57;9.90;;;3.20;;
6344;SDS011;3205;42.666;23.264;2023-04-16T04:09:23;6.57;;;2.80;;
6344;SDS011;3205;42.666;23.264;2023-04-16T04:11:50;6.97;;;3.07;;
6344;SDS011;3205;42.666;23.264;2023-04-16T04:14:16;16.10;;;3.40;;
6344;SDS011;3205;42.666;23.264;2023-04-16T04:16:42;9.73;;;3.50;;
6344;SDS011;3205;42.666;23.264;2023-04-16T04:19:08;4.70;;;3.10;;
6344;SDS011;3205;42.666;23.264;2023-04-16T04:21:34;5.73;;;3.33;;
6344;SDS011;3205;42.666;23.264;2023-04-16T04:24:00;8.17;;;3.17;;
6344;SDS011;3205;42.666;23.264;2023-04-16T04:26:26;6.70;;;3.40;;
6344;SDS011;3205;42.666;23.264;2023-04-16T04:28:59;9.47;;;3.47;;
6344;SDS011;3205;42.666;23.264;2023-04-16T04:31:25;7.23;;;3.47;;
6344;SDS011;3205;42.666;23.264;2023-04-16T04:33:51;7.43;;;3.50;;
6344;SDS011;3205;42.666;23.264;2023-04-16T04:36:18;9.90;;;3.93;;
6344;SDS011;3205;42.666;23.264;2023-04-16T04:38:44;11.07;;;3.97;;
6344;SDS011;3205;42.666;23.264;2023-04-16T04:41:10;10.93;;;3.77;;
6344;SDS011;3205;42.666;23.264;2023-04-16T04:43:36;9.73;;;4.87;;
6344;SDS011;3205;42.666;23.264;2023-04-16T04:46:03;10.63;;;3.77;;
6344;SDS011;3205;42.666;23.264;2023-04-16T04:48:29;8.40;;;4.30;;
6344;SDS011;3205;42.666;23.264;2023-04-16T04:50:55;9.93;;;4.13;;
6344;SDS011;3205;42.666;23.264;2023-04-16T04:53:21;9.00;;;3.53;;
6344;SDS011;3205;42.666;23.264;2023-04-16T04:55:47;9.43;;;4.40;;
6344;SDS011;3205;42.666;23.264;2023-04-16T04:58:13;7.33;;;3.57;;
6344;SDS011;3205;42.666;23.264;2023-04-16T05:00:39;9.67;;;4.10;;
6344;SDS011;3205;42.666;23.264;2023-04-16T05:03:08;7.90;;;4.27;;
6344;SDS011;3205;42.666;23.264;2023-04-16T05:05:35;5.37;;;3.50;;
6344;SDS011;3205;42.666;23.264;2023-04-16T05:08:01;8.37;;;3.90;;
6344;SDS011;3205;42.666;23.264;2023-04-16T05:10:28;8.10;;;3.70;;
6344;SDS011;3205;42.666;23.264;2023-04-16T05:12:54;10.37;;;3.90;;
6344;SDS011;3205;42.666;23.264;2023-04-16T05:15:20;12.20;;;4.10;;
6344;SDS011;3205;42.666;23.264;2023-04-16T05:17:46;9.10;;;4.47;;
6344;SDS011;3205;42.666;23.264;2023-04-16T05:20:13;10.23;;;4.73;;
6344;SDS011;3205;42.666;23.264;2023-04-16T05:22:39;9.67;;;4.00;;
6344;SDS011;3205;42.666;23.264;2023-04-16T05:25:05;13.20;;;4.93;;
6344;SDS011;3205;42.666;23.264;2023-04-16T05:27:31;10.17;;;4.00;;
6344;SDS011;3205;42.666;23.264;2023-04-16T05:29:58;12.20;;;4.10;;
6344;SDS011;3205;42.666;23.264;2023-04-16T05:32:24;7.23;;;3.57;;
6344;SDS011;3205;42.666;23.264;2023-04-16T05:34:51;5.30;;;3.77;;
6344;SDS011;3205;42.666;23.264;2023-04-16T05:37:17;10.70;;;3.87;;
6344;SDS011;3205;42.666;23.264;2023-04-16T05:39:44;6.87;;;3.63;;
6344;SDS011;3205;42.666;23.264;2023-04-16T05:42:10;7.50;;;4.33;;
6344;SDS011;3205;42.666;23.264;2023-04-16T05:44:36;9.20;;;4.53;;
6344;SDS011;3205;42.666;23.264;2023-04-16T05:47:02;9.37;;;4.40;;
6344;SDS011;3205;42.666;23.264;2023-04-16T05:49:28;8.30;;;5.23;;
6344;SDS011;3205;42.666;23.264;2023-04-16T05:51:54;10.87;;;5.13;;
6344;SDS011;3205;42.666;23.264;2023-04-16T05:54:21;15.27;;;6.13;;
6344;SDS011;3205;42.666;23.264;2023-04-16T05:56:47;12.77;;;5.20;;
6344;SDS011;3205;42.666;23.264;2023-04-16T05:59:13;13.17;;;6.10;;
6344;SDS011;3205;42.666;23.264;2023-04-16T06:01:39;10.87;;;5.57;;
6344;SDS011;3205;42.666;23.264;2023-04-16T06:04:05;13.57;;;5.70;;
6344;SDS011;3205;42.666;23.264;2023-04-16T06:06:31;12.83;;;6.20;;
6344;SDS011;3205;42.666;23.264;2023-04-16T06:08:57;10.70;;;5.43;;
6344;SDS011;3205;42.666;23.264;2023-04-16T06:11:24;13.53;;;6.43;;
6344;SDS011;3205;42.666;23.264;2023-04-16T06:13:51;17.23;;;7.00;;
6344;SDS011;3205;42.666;23.264;2023-04-16T06:16:17;7.83;;;5.93;;
6344;SDS011;3205;42.666;23.264;2023-04-16T06:18:43;9.50;;;5.80;;
6344;SDS011;3205;42.666;23.264;2023-04-16T06:21:09;14.10;;;7.37;;
6344;SDS011;3205;42.666;23.264;2023-04-16T06:23:35;11.33;;;6.87;;
6344;SDS011;3205;42.666;23.264;2023-04-16T06:26:02;12.97;;;6.80;;
6344;SDS011;3205;42.666;23.264;2023-04-16T06:28:29;18.23;;;6.73;;
6344;SDS011;3205;42.666;23.264;2023-04-16T06:30:55;10.13;;;6.33;;
6344;SDS011;3205;42.666;23.264;2023-04-16T06:33:21;12.10;;;5.83;;
6344;SDS011;3205;42.666;23.264;2023-04-16T06:35:47;12.23;;;6.07;;
6344;SDS011;3205;42.666;23.264;2023-04-16T06:38:13;8.80;;;5.37;;
6344;SDS011;3205;42.666;23.264;2023-04-16T06:40:40;8.37;;;5.07;;
6344;SDS011;3205;42.666;23.264;2023-04-16T06:43:06;15.13;;;6.67;;
6344;SDS011;3205;42.666;23.264;2023-04-16T06:45:33;12.37;;;7.07;;
6344;SDS011;3205;42.666;23.264;2023-04-16T06:47:59;17.25;;;7.30;;
6344;SDS011;3205;42.666;23.264;2023-04-16T06:50:25;14.70;;;7.13;;
6344;SDS011;3205;42.666;23.264;2023-04-16T06:52:52;13.70;;;6.65;;
6344;SDS011;3205;42.666;23.264;2023-04-16T06:55:18;12.30;;;6.30;;
6344;SDS011;3205;42.666;23.264;2023-04-16T06:57:45;14.50;;;6.40;;
6344;SDS011;3205;42.666;23.264;2023-04-16T07:00:11;13.00;;;6.10;;
6344;SDS011;3205;42.666;23.264;2023-04-16T07:02:38;14.00;;;6.63;;
6344;SDS011;3205;42.666;23.264;2023-04-16T07:05:04;16.73;;;8.47;;
6344;SDS011;3205;42.666;23.264;2023-04-16T07:07:31;12.50;;;7.67;;
6344;SDS011;3205;42.666;23.264;2023-04-16T07:09:57;14.80;;;7.67;;
6344;SDS011;3205;42.666;23.264;2023-04-16T07:12:24;20.88;;;7.65;;
6344;SDS011;3205;42.666;23.264;2023-04-16T07:14:51;16.48;;;7.90;;
6344;SDS011;3205;42.666;23.264;2023-04-16T07:17:17;19.67;;;7.35;;
6344;SDS011;3205;42.666;23.264;2023-04-16T07:19:44;18.80;;;7.78;;
6344;SDS011;3205;42.666;23.264;2023-04-16T07:22:10;11.98;;;7.53;;
6344;SDS011;3205;42.666;23.264;2023-04-16T07:24:36;16.75;;;6.78;;
6344;SDS011;3205;42.666;23.264;2023-04-16T07:27:02;10.73;;;7.10;;
6344;SDS011;3205;42.666;23.264;2023-04-16T07:29:28;11.02;;;6.32;;
6344;SDS011;3205;42.666;23.264;2023-04-16T07:31:55;16.85;;;7.32;;
6344;SDS011;3205;42.666;23.264;2023-04-16T07:34:21;12.63;;;6.40;;
6344;SDS011;3205;42.666;23.264;2023-04-16T07:37:07;11.13;;;6.32;;
6344;SDS011;3205;42.666;23.264;2023-04-16T07:39:33;10.93;;;6.22;;
6344;SDS011;3205;42.666;23.264;2023-04-16T07:41:59;10.10;;;6.07;;
6344;SDS011;3205;42.666;23.264;2023-04-16T07:44:26;10.90;;;6.32;;
6344;SDS011;3205;42.666;23.264;2023-04-16T07:46:52;11.00;;;6.15;;
6344;SDS011;3205;42.666;23.264;2023-04-16T07:49:18;34.92;;;6.57;;
6344;SDS011;3205;42.666;23.264;2023-04-16T07:51:44;11.93;;;5.95;;
6344;SDS011;3205;42.666;23.264;2023-04-16T07:54:11;10.70;;;5.25;;
6344;SDS011;3205;42.666;23.264;2023-04-16T07:56:37;10.23;;;5.80;;
6344;SDS011;3205;42.666;23.264;2023-04-16T07:59:03;8.00;;;5.30;;
6344;SDS011;3205;42.666;23.264;2023-04-16T08:01:29;8.45;;;5.45;;
6344;SDS011;3205;42.666;23.264;2023-04-16T08:03:55;6.45;;;5.25;;
6344;SDS011;3205;42.666;23.264;2023-04-16T08:06:21;10.60;;;5.63;;
6344;SDS011;3205;42.666;23.264;2023-04-16T08:08:47;11.48;;;5.60;;
6344;SDS011;3205;42.666;23.264;2023-04-16T08:11:14;13.82;;;5.82;;
6344;SDS011;3205;42.666;23.264;2023-04-16T08:13:40;8.52;;;5.63;;
6344;SDS011;3205;42.666;23.264;2023-04-16T08:16:07;9.35;;;5.05;;
6344;SDS011;3205;42.666;23.264;2023-04-16T08:18:33;9.27;;;5.13;;
6344;SDS011;3205;42.666;23.264;2023-04-16T08:20:59;8.80;;;5.05;;
6344;SDS011;3205;42.666;23.264;2023-04-16T08:23:25;4.32;;;3.70;;
6344;SDS011;3205;42.666;23.264;2023-04-16T08:25:51;9.13;;;4.40;;
6344;SDS011;3205;42.666;23.264;2023-04-16T08:28:18;9.93;;;6.13;;
6344;SDS011;3205;42.666;23.264;2023-04-16T08:30:44;11.82;;;5.43;;
6344;SDS011;3205;42.666;23.264;2023-04-16T08:33:10;7.53;;;3.83;;
6344;SDS011;3205;42.666;23.264;2023-04-16T08:35:38;6.05;;;4.28;;
6344;SDS011;3205;42.666;23.264;2023-04-16T08:38:04;4.50;;;3.50;;
6344;SDS011;3205;42.666;23.264;2023-04-16T08:40:31;7.97;;;3.97;;
6344;SDS011;3205;42.666;23.264;2023-04-16T08:43:01;5.93;;;3.10;;
6344;SDS011;3205;42.666;23.264;2023-04-16T08:45:31;7.22;;;3.22;;
6344;SDS011;3205;42.666;23.264;2023-04-16T08:47:59;7.78;;;3.03;;
6344;SDS011;3205;42.666;23.264;2023-04-16T08:50:29;4.55;;;2.67;;
6344;SDS011;3205;42.666;23.264;2023-04-16T08:52:59;3.40;;;3.10;;
6344;SDS011;3205;42.666;23.264;2023-04-16T08:55:30;10.27;;;3.83;;
6344;SDS011;3205;42.666;23.264;2023-04-16T08:58:02;7.35;;;3.03;;
6344;SDS011;3205;42.666;23.264;2023-04-16T09:00:33;6.22;;;3.10;;
6344;SDS011;3205;42.666;23.264;2023-04-16T09:03:02;5.18;;;2.78;;
6344;SDS011;3205;42.666;23.264;2023-04-16T09:05:29;6.43;;;2.92;;
6344;SDS011;3205;42.666;23.264;2023-04-16T09:07:56;10.45;;;3.13;;
6344;SDS011;3205;42.666;23.264;2023-04-16T09:10:22;8.40;;;3.47;;
6344;SDS011;3205;42.666;23.264;2023-04-16T09:12:51;6.38;;;3.33;;
6344;SDS011;3205;42.666;23.264;2023-04-16T09:15:20;6.55;;;3.45;;
6344;SDS011;3205;42.666;23.264;2023-04-16T09:17:47;10.68;;;3.05;;
6344;SDS011;3205;42.666;23.264;2023-04-16T09:20:13;4.78;;;2.92;;
6344;SDS011;3205;42.666;23.264;2023-04-16T09:22:40;6.15;;;2.92;;
6344;SDS011;3205;42.666;23.264;2023-04-16T09:25:08;15.93;;;3.03;;
6344;SDS011;3205;42.666;23.264;2023-04-16T09:27:35;4.90;;;2.50;;
6344;SDS011;3205;42.666;23.264;2023-04-16T09:30:02;6.47;;;2.90;;
6344;SDS011;3205;42.666;23.264;2023-04-16T09:32:43;9.60;;;2.65;;
6344;SDS011;3205;42.666;23.264;2023-04-16T09:35:09;4.53;;;2.60;;
6344;SDS011;3205;42.666;23.264;2023-04-16T09:37:35;4.28;;;2.88;;
6344;SDS011;3205;42.666;23.264;2023-04-16T09:40:02;8.63;;;2.78;;
6344;SDS011;3205;42.666;23.264;2023-04-16T09:42:29;5.22;;;3.28;;
6344;SDS011;3205;42.666;23.264;2023-04-16T09:44:57;8.73;;;3.15;;
6344;SDS011;3205;42.666;23.264;2023-04-16T09:47:24;5.10;;;2.70;;
6344;SDS011;3205;42.666;23.264;2023-04-16T09:49:51;4.40;;;2.70;;
6344;SDS011;3205;42.666;23.264;2023-04-16T09:52:18;3.20;;;2.45;;
6344;SDS011;3205;42.666;23.264;2023-04-16T09:54:47;5.60;;;2.15;;
6344;SDS011;3205;42.666;23.264;2023-04-16T09:57:17;4.97;;;2.50;;
6344;SDS011;3205;42.666;23.264;2023-04-16T09:59:46;4.63;;;2.20;;
6344;SDS011;3205;42.666;23.264;2023-04-16T10:02:12;2.38;;;1.60;;
6344;SDS011;3205;42.666;23.264;2023-04-16T10:04:45;2.97;;;1.60;;
6344;SDS011;3205;42.666;23.264;2023-04-16T10:07:12;3.25;;;1.70;;
6344;SDS011;3205;42.666;23.264;2023-04-16T10:09:39;6.60;;;2.35;;
6344;SDS011;3205;42.666;23.264;2023-04-16T10:12:05;4.72;;;2.15;;
6344;SDS011;3205;42.666;23.264;2023-04-16T10:14:32;4.20;;;1.90;;
6344;SDS011;3205;42.666;23.264;2023-04-16T10:16:58;4.63;;;1.95;;
6344;SDS011;3205;42.666;23.264;2023-04-16T10:19:25;3.53;;;1.75;;
6344;SDS011;3205;42.666;23.264;2023-04-16T10:21:51;5.38;;;2.30;;
6344;SDS011;3205;42.666;23.264;2023-04-16T10:24:19;2.75;;;1.90;;
6344;SDS011;3205;42.666;23.264;2023-04-16T10:26:47;2.67;;;1.75;;
6344;SDS011;3205;42.666;23.264;2023-04-16T10:29:16;5.20;;;2.20;;
6344;SDS011;3205;42.666;23.264;2023-04-16T10:31:42;5.10;;;2.10;;
6344;SDS011;3205;42.666;23.264;2023-04-16T10:34:09;4.03;;;1.80;;
6344;SDS011;3205;42.666;23.264;2023-04-16T10:36:36;2.50;;;1.73;;
6344;SDS011;3205;42.666;23.264;2023-04-16T10:39:02;3.55;;;1.65;;
6344;SDS011;3205;42.666;23.264;2023-04-16T10:41:30;3.97;;;2.20;;
6344;SDS011;3205;42.666;23.264;2023-04-16T10:44:03;3.60;;;1.90;;
6344;SDS011;3205;42.666;23.264;2023-04-16T10:46:32;4.68;;;1.60;;
6344;SDS011;3205;42.666;23.264;2023-04-16T10:48:59;3.53;;;1.60;;
6344;SDS011;3205;42.666;23.264;2023-04-16T10:51:28;3.17;;;2.17;;
6344;SDS011;3205;42.666;23.264;2023-04-16T10:53:56;4.18;;;2.60;;
6344;SDS011;3205;42.666;23.264;2023-04-16T10:56:26;4.65;;;2.38;;
6344;SDS011;3205;42.666;23.264;2023-04-16T10:58:55;5.07;;;2.15;;
6344;SDS011;3205;42.666;23.264;2023-04-16T11:01:29;8.25;;;2.45;;
6344;SDS011;3205;42.666;23.264;2023-04-16T11:03:57;7.20;;;2.88;;
6344;SDS011;3205;42.666;23.264;2023-04-16T11:06:26;6.10;;;2.55;;
6344;SDS011;3205;42.666;23.264;2023-04-16T11:08:53;6.22;;;2.17;;
6344;SDS011;3205;42.666;23.264;2023-04-16T11:11:20;5.82;;;2.83;;
6344;SDS011;3205;42.666;23.264;2023-04-16T11:13:46;7.72;;;3.47;;
6344;SDS011;3205;42.666;23.264;2023-04-16T11:16:13;6.53;;;3.05;;
6344;SDS011;3205;42.666;23.264;2023-04-16T11:18:41;3.97;;;2.63;;
6344;SDS011;3205;42.666;23.264;2023-04-16T11:21:09;8.40;;;2.75;;
6344;SDS011;3205;42.666;23.264;2023-04-16T11:23:44;3.97;;;2.63;;
6344;SDS011;3205;42.666;23.264;2023-04-16T11:26:18;7.90;;;2.83;;
6344;SDS011;3205;42.666;23.264;2023-04-16T11:28:48;7.60;;;3.00;;
6344;SDS011;3205;42.666;23.264;2023-04-16T11:31:14;5.25;;;2.88;;
6344;SDS011;3205;42.666;23.264;2023-04-16T11:33:42;8.23;;;3.00;;
6344;SDS011;3205;42.666;23.264;2023-04-16T11:36:08;3.92;;;2.60;;
6344;SDS011;3205;42.666;23.264;2023-04-16T11:38:34;4.47;;;3.30;;
6344;SDS011;3205;42.666;23.264;2023-04-16T11:41:01;5.78;;;3.20;;
6344;SDS011;3205;42.666;23.264;2023-04-16T11:43:28;8.38;;;2.72;;
6344;SDS011;3205;42.666;23.264;2023-04-16T11:45:57;9.18;;;3.15;;
6344;SDS011;3205;42.666;23.264;2023-04-16T11:48:25;8.95;;;2.60;;
6344;SDS011;3205;42.666;23.264;2023-04-16T11:51:10;6.80;;;2.95;;
6344;SDS011;3205;42.666;23.264;2023-04-16T11:53:43;4.70;;;2.63;;
6344;SDS011;3205;42.666;23.264;2023-04-16T11:56:10;10.00;;;2.80;;
6344;SDS011;3205;42.666;23.264;2023-04-16T11:58:36;4.63;;;2.92;;
6344;SDS011;3205;42.666;23.264;2023-04-16T12:01:02;5.30;;;3.13;;
6344;SDS011;3205;42.666;23.264;2023-04-16T12:03:38;6.35;;;2.50;;
6344;SDS011;3205;42.666;23.264;2023-04-16T12:06:08;5.68;;;2.65;;
6344;SDS011;3205;42.666;23.264;2023-04-16T12:08:35;8.45;;;2.75;;
6344;SDS011;3205;42.666;23.264;2023-04-16T12:11:01;4.22;;;2.53;;
6344;SDS011;3205;42.666;23.264;2023-04-16T12:13:27;8.63;;;4.28;;
6344;SDS011;3205;42.666;23.264;2023-04-16T12:15:54;3.95;;;2.58;;
6344;SDS011;3205;42.666;23.264;2023-04-16T12:18:21;7.88;;;3.13;;
6344;SDS011;3205;42.666;23.264;2023-04-16T12:20:50;5.32;;;3.03;;
6344;SDS011;3205;42.666;23.264;2023-04-16T12:23:23;6.65;;;2.72;;
6344;SDS011;3205;42.666;23.264;2023-04-16T12:25:51;6.13;;;2.97;;
6344;SDS011;3205;42.666;23.264;2023-04-16T12:28:25;6.72;;;2.80;;
6344;SDS011;3205;42.666;23.264;2023-04-16T12:30:53;7.22;;;2.65;;
6344;SDS011;3205;42.666;23.264;2023-04-16T12:33:19;6.55;;;2.03;;
6344;SDS011;3205;42.666;23.264;2023-04-16T12:35:45;8.35;;;2.70;;
6344;SDS011;3205;42.666;23.264;2023-04-16T12:38:11;8.02;;;2.42;;
6344;SDS011;3205;42.666;23.264;2023-04-16T12:40:39;2.45;;;2.20;;
6344;SDS011;3205;42.666;23.264;2023-04-16T12:43:06;3.25;;;2.22;;
6344;SDS011;3205;42.666;23.264;2023-04-16T12:45:33;4.13;;;2.20;;
6344;SDS011;3205;42.666;23.264;2023-04-16T12:47:59;6.70;;;2.45;;
6344;SDS011;3205;42.666;23.264;2023-04-16T12:50:25;4.90;;;2.20;;
6344;SDS011;3205;42.666;23.264;2023-04-16T12:52:52;3.83;;;2.28;;
6344;SDS011;3205;42.666;23.264;2023-04-16T12:55:19;3.90;;;1.92;;
6344;SDS011;3205;42.666;23.264;2023-04-16T12:57:45;6.40;;;3.03;;
6344;SDS011;3205;42.666;23.264;2023-04-16T13:00:14;8.65;;;2.05;;
6344;SDS011;3205;42.666;23.264;2023-04-16T13:02:40;3.17;;;2.10;;
6344;SDS011;3205;42.666;23.264;2023-04-16T13:05:06;6.70;;;2.72;;
6344;SDS011;3205;42.666;23.264;2023-04-16T13:07:33;4.45;;;2.25;;
6344;SDS011;3205;42.666;23.264;2023-04-16T13:09:59;2.92;;;1.58;;
6344;SDS011;3205;42.666;23.264;2023-04-16T13:12:26;7.03;;;1.98;;
6344;SDS011;3205;42.666;23.264;2023-04-16T13:14:52;5.78;;;1.83;;
6344;SDS011;3205;42.666;23.264;2023-04-16T13:17:19;3.60;;;2.03;;
6344;SDS011;3205;42.666;23.264;2023-04-16T13:19:45;5.10;;;2.10;;
6344;SDS011;3205;42.666;23.264;2023-04-16T13:22:11;6.72;;;1.98;;
6344;SDS011;3205;42.666;23.264;2023-04-16T13:24:37;1.77;;;1.50;;
6344;SDS011;3205;42.666;23.264;2023-04-16T13:27:04;2.30;;;1.55;;
6344;SDS011;3205;42.666;23.264;2023-04-16T13:29:32;2.90;;;1.80;;
6344;SDS011;3205;42.666;23.264;2023-04-16T13:32:00;4.60;;;2.15;;
6344;SDS011;3205;42.666;23.264;2023-04-16T13:34:27;6.68;;;3.15;;
6344;SDS011;3205;42.666;23.264;2023-04-16T13:36:53;7.63;;;2.60;;
6344;SDS011;3205;42.666;23.264;2023-04-16T13:39:20;9.88;;;2.65;;
6344;SDS011;3205;42.666;23.264;2023-04-16T13:41:46;5.13;;;2.05;;
6344;SDS011;3205;42.666;23.264;2023-04-16T13:44:13;8.20;;;2.27;;
6344;SDS011;3205;42.666;23.264;2023-04-16T13:46:39;15.50;;;3.27;;
6344;SDS011;3205;42.666;23.264;2023-04-16T13:49:07;9.37;;;2.63;;
6344;SDS011;3205;42.666;23.264;2023-04-16T13:51:34;6.80;;;3.03;;
6344;SDS011;3205;42.666;23.264;2023-04-16T13:54:01;9.47;;;3.30;;
6344;SDS011;3205;42.666;23.264;2023-04-16T13:56:27;6.10;;;2.83;;
6344;SDS011;3205;42.666;23.264;2023-04-16T13:58:53;8.67;;;3.23;;
6344;SDS011;3205;42.666;23.264;2023-04-16T14:01:19;8.83;;;3.13;;
6344;SDS011;3205;42.666;23.264;2023-04-16T14:03:45;5.60;;;2.70;;
6344;SDS011;3205;42.666;23.264;2023-04-16T14:06:11;7.33;;;3.03;;
6344;SDS011;3205;42.666;23.264;2023-04-16T14:08:39;6.07;;;3.43;;
6344;SDS011;3205;42.666;23.264;2023-04-16T14:11:05;5.13;;;3.37;;
6344;SDS011;3205;42.666;23.264;2023-04-16T14:13:33;7.37;;;3.40;;
6344;SDS011;3205;42.666;23.264;2023-04-16T14:15:59;5.90;;;3.40;;
6344;SDS011;3205;42.666;23.264;2023-04-16T14:18:25;3.07;;;2.20;;
6344;SDS011;3205;42.666;23.264;2023-04-16T14:20:51;4.47;;;2.13;;
6344;SDS011;3205;42.666;23.264;2023-04-16T14:23:17;3.17;;;2.10;;
6344;SDS011;3205;42.666;23.264;2023-04-16T14:25:44;2.47;;;1.90;;
6344;SDS011;3205;42.666;23.264;2023-04-16T14:28:10;5.00;;;2.13;;
6344;SDS011;3205;42.666;23.264;2023-04-16T14:30:36;2.70;;;2.10;;
6344;SDS011;3205;42.666;23.264;2023-04-16T14:33:03;4.40;;;2.60;;
6344;SDS011;3205;42.666;23.264;2023-04-16T14:35:30;6.17;;;2.93;;
6344;SDS011;3205;42.666;23.264;2023-04-16T14:37:56;4.23;;;3.03;;
6344;SDS011;3205;42.666;23.264;2023-04-16T14:40:22;7.83;;;4.50;;
6344;SDS011;3205;42.666;23.264;2023-04-16T14:42:49;6.07;;;3.70;;
6344;SDS011;3205;42.666;23.264;2023-04-16T14:45:15;5.80;;;3.90;;
6344;SDS011;3205;42.666;23.264;2023-04-16T14:47:41;7.63;;;3.57;;
6344;SDS011;3205;42.666;23.264;2023-04-16T14:50:11;4.37;;;3.07;;
6344;SDS011;3205;42.666;23.264;2023-04-16T14:52:38;6.87;;;2.90;;
6344;SDS011;3205;42.666;23.264;2023-04-16T14:55:05;8.27;;;3.47;;